createdAt,value
2016-09-15T04:19:14.929Z,4
2016-09-15T04:20:15.570Z,4
2016-09-15T04:21:16.215Z,0
2016-09-15T04:22:16.850Z,4
2016-09-15T04:23:17.572Z,4
2016-09-15T04:24:18.217Z,4
2016-09-15T04:25:18.853Z,4
2016-09-15T04:26:19.482Z,8
2016-09-15T04:27:20.111Z,8
2016-09-15T04:28:20.761Z,8
2016-09-15T04:29:21.397Z,8
2016-09-15T04:30:22.191Z,12
2016-09-15T04:31:22.820Z,12
2016-09-15T04:32:23.461Z,16
2016-09-15T04:33:24.101Z,20
2016-09-15T04:34:24.751Z,24
2016-09-15T04:35:25.397Z,28
2016-09-15T04:36:26.028Z,28
2016-09-15T04:37:26.681Z,36
2016-09-15T04:38:27.338Z,40
2016-09-15T04:39:27.995Z,44
2016-09-15T04:40:29.713Z,52
2016-09-15T04:41:30.149Z,56
2016-09-15T04:42:30.801Z,68
2016-09-15T04:43:31.439Z,76
2016-09-15T04:44:32.070Z,84
2016-09-15T04:45:32.767Z,96
2016-09-15T04:46:33.405Z,108
2016-09-15T04:47:34.046Z,116
2016-09-15T04:48:35.253Z,128
2016-09-15T04:49:35.928Z,144
2016-09-15T04:50:36.581Z,156
2016-09-15T04:51:37.214Z,172
2016-09-15T04:52:37.847Z,192
2016-09-15T04:53:38.491Z,208
2016-09-15T04:54:39.134Z,224
2016-09-15T04:55:39.777Z,240
2016-09-15T04:56:40.412Z,264
2016-09-15T04:57:41.141Z,284
2016-09-15T04:58:41.827Z,304
2016-09-15T04:59:42.511Z,324
2016-09-15T05:00:43.155Z,348
2016-09-15T05:01:43.823Z,376
2016-09-15T05:02:44.457Z,396
2016-09-15T05:03:45.083Z,424
2016-09-15T05:04:45.723Z,452
2016-09-15T05:05:46.372Z,480
2016-09-15T05:06:47.022Z,504
2016-09-15T05:07:47.675Z,528
2016-09-15T05:08:48.333Z,560
2016-09-15T05:09:48.994Z,596
2016-09-15T05:10:49.620Z,620
2016-09-15T05:11:50.259Z,652
2016-09-15T05:12:50.939Z,680
2016-09-15T05:13:51.586Z,720
2016-09-15T05:14:52.229Z,740
2016-09-15T05:15:52.890Z,776
2016-09-15T05:16:53.521Z,804
2016-09-15T05:17:54.167Z,836
2016-09-15T05:18:54.802Z,868
2016-09-15T05:19:55.433Z,904
2016-09-15T05:20:56.066Z,936
2016-09-15T05:21:56.734Z,968
2016-09-15T05:22:57.374Z,1000
2016-09-15T05:23:58.019Z,1036
2016-09-15T05:24:58.657Z,1064
2016-09-15T05:25:59.301Z,1092
2016-09-15T05:26:59.919Z,1128
2016-09-15T05:28:00.580Z,1164
2016-09-15T05:29:01.205Z,1196
2016-09-15T05:30:01.863Z,1228
2016-09-15T05:31:02.510Z,1268
2016-09-15T05:32:03.148Z,1312
2016-09-15T05:33:03.806Z,1332
2016-09-15T05:34:04.452Z,1360
2016-09-15T05:35:05.131Z,1388
2016-09-15T05:36:05.771Z,1432
2016-09-15T05:37:06.419Z,1452
2016-09-15T05:38:07.054Z,1496
2016-09-15T05:39:07.684Z,1524
2016-09-15T05:40:08.321Z,1568
2016-09-15T05:41:08.987Z,1596
2016-09-15T05:42:09.618Z,1636
2016-09-15T05:43:10.260Z,1660
2016-09-15T05:44:10.932Z,1700
2016-09-15T05:45:11.555Z,1720
2016-09-15T05:46:12.197Z,1764
2016-09-15T05:47:12.835Z,1792
2016-09-15T05:48:13.469Z,1828
2016-09-15T05:49:14.124Z,1868
2016-09-15T05:50:14.759Z,1904
2016-09-15T05:51:15.396Z,1944
2016-09-15T05:52:16.013Z,1984
2016-09-15T05:53:16.637Z,2016
2016-09-15T05:54:17.283Z,2052
2016-09-15T05:55:17.917Z,2112
2016-09-15T05:56:18.552Z,2128
2016-09-15T05:57:19.204Z,2168
2016-09-15T05:58:19.909Z,2216
2016-09-15T05:59:20.592Z,2260
2016-09-15T06:00:21.225Z,2320
2016-09-15T06:01:21.903Z,2364
2016-09-15T06:02:22.556Z,2452
2016-09-15T06:03:23.195Z,2508
2016-09-15T06:04:23.853Z,2572
2016-09-15T06:05:24.513Z,2640
2016-09-15T06:06:25.195Z,2684
2016-09-15T06:07:25.875Z,2740
2016-09-15T06:08:26.537Z,2784
2016-09-15T06:09:27.178Z,2844
2016-09-15T06:10:27.808Z,2884
2016-09-15T06:11:28.501Z,2940
2016-09-15T06:12:29.144Z,2988
2016-09-15T06:13:29.788Z,3028
2016-09-15T06:14:30.427Z,3080
2016-09-15T06:15:31.070Z,3148
2016-09-15T06:16:31.712Z,3280
2016-09-15T06:17:32.346Z,3532
2016-09-15T06:18:33.059Z,5804
2016-09-15T06:19:33.706Z,7568
2016-09-15T06:20:34.380Z,6504
2016-09-15T06:21:35.060Z,6460
2016-09-15T06:22:35.688Z,4716
2016-09-15T06:23:36.345Z,4268
2016-09-15T06:24:37.013Z,3312
2016-09-15T06:25:37.694Z,3188
2016-09-15T06:26:38.346Z,3204
2016-09-15T06:27:38.994Z,3304
2016-09-15T06:28:39.658Z,3596
2016-09-15T06:29:40.310Z,3836
2016-09-15T06:30:40.962Z,3876
2016-09-15T06:31:41.628Z,4128
2016-09-15T06:32:42.265Z,3728
2016-09-15T06:33:42.918Z,3744
2016-09-15T06:34:43.548Z,3704
2016-09-15T06:35:44.221Z,4272
2016-09-15T06:36:44.868Z,6208
2016-09-15T06:37:45.507Z,7408
2016-09-15T06:38:46.140Z,7396
2016-09-15T06:39:46.795Z,13164
2016-09-15T06:40:47.451Z,24128
2016-09-15T06:41:48.099Z,29024
2016-09-15T06:42:48.729Z,30080
2016-09-15T06:43:49.378Z,30656
2016-09-15T06:44:50.033Z,29792
2016-09-15T06:45:50.694Z,28192
2016-09-15T06:46:51.316Z,27872
2016-09-15T06:47:51.965Z,28576
2016-09-15T06:48:52.630Z,29856
2016-09-15T06:49:53.313Z,31808
2016-09-15T06:50:53.946Z,32512
2016-09-15T06:51:54.583Z,33376
2016-09-15T06:52:55.227Z,34752
2016-09-15T06:53:55.870Z,36832
2016-09-15T06:54:56.508Z,36736
2016-09-15T06:55:57.174Z,33408
2016-09-15T06:56:57.842Z,29600
2016-09-15T06:57:58.480Z,28192
2016-09-15T06:58:59.142Z,29312
2016-09-15T06:59:59.801Z,33216
2016-09-15T07:01:00.485Z,37472
2016-09-15T07:02:01.155Z,37824
2016-09-15T07:03:01.826Z,33664
2016-09-15T07:04:02.468Z,29920
2016-09-15T07:05:03.136Z,30464
2016-09-15T07:06:03.784Z,34048
2016-09-15T07:07:04.480Z,36512
2016-09-15T07:08:05.125Z,35840
2016-09-15T07:09:05.827Z,33856
2016-09-15T07:10:06.498Z,32960
2016-09-15T07:11:07.147Z,32672
2016-09-15T07:12:07.839Z,32544
2016-09-15T07:13:08.507Z,32384
2016-09-15T07:14:09.192Z,33024
2016-09-15T07:15:09.852Z,37344
2016-09-15T07:16:10.513Z,44768
2016-09-15T07:17:11.169Z,48448
2016-09-15T07:18:11.819Z,46912
2016-09-15T07:19:12.466Z,40800
2016-09-15T07:20:13.123Z,34624
2016-09-15T07:21:13.782Z,31872
2016-09-15T07:22:14.451Z,31744
2016-09-15T07:23:15.124Z,29280
2016-09-15T07:24:15.783Z,26624
2016-09-15T07:25:16.477Z,26688
2016-09-15T07:26:17.145Z,31776
2016-09-15T07:27:17.813Z,39232
2016-09-15T07:28:18.472Z,45088
2016-09-15T07:29:19.130Z,51264
2016-09-15T07:30:19.783Z,54112
2016-09-15T07:31:20.448Z,52544
2016-09-15T07:32:21.124Z,49952
2016-09-15T07:33:21.795Z,45696
2016-09-15T07:34:22.466Z,39488
2016-09-15T07:35:23.119Z,36032
2016-09-15T07:36:23.787Z,34656
2016-09-15T07:37:24.458Z,32128
2016-09-15T07:38:25.118Z,28736
2016-09-15T07:39:25.776Z,29056
2016-09-15T07:40:26.435Z,33536
2016-09-15T07:41:27.088Z,38592
2016-09-15T07:42:27.737Z,41568
2016-09-15T07:43:28.428Z,43072
2016-09-15T07:44:29.118Z,44960
2016-09-15T07:45:29.774Z,45504
2016-09-15T07:46:30.438Z,43136
2016-09-15T07:47:31.121Z,38336
2016-09-15T07:48:31.772Z,34976
2016-09-15T07:49:32.453Z,36064
2016-09-15T07:50:33.112Z,40480
2016-09-15T07:51:33.782Z,46368
2016-09-15T07:52:34.450Z,48800
2016-09-15T07:53:35.112Z,46176
2016-09-15T07:54:35.764Z,41984
2016-09-15T07:55:36.435Z,40352
2016-09-15T07:56:37.086Z,43200
2016-09-15T07:57:37.729Z,49184
2016-09-15T07:58:38.389Z,53376
2016-09-15T07:59:39.051Z,52896
2016-09-15T08:00:39.699Z,48768
2016-09-15T08:01:40.350Z,43744
2016-09-15T08:02:41.051Z,41728
2016-09-15T08:03:41.695Z,42560
2016-09-15T08:04:42.377Z,46080
2016-09-15T08:05:43.031Z,50656
2016-09-15T08:06:43.688Z,54272
2016-09-15T08:07:44.343Z,55840
2016-09-15T08:08:45.001Z,54880
2016-09-15T08:09:45.663Z,51904
2016-09-15T08:10:46.319Z,47552
2016-09-15T08:11:46.990Z,45504
2016-09-15T08:12:47.635Z,47776
2016-09-15T08:13:48.306Z,52960
2016-09-15T08:14:48.990Z,56832
2016-09-15T08:15:49.633Z,57568
2016-09-15T08:16:50.319Z,54912
2016-09-15T08:17:51.000Z,51200
2016-09-15T08:18:51.663Z,47904
2016-09-15T08:19:52.361Z,47296
2016-09-15T08:20:53.013Z,47328
2016-09-15T08:21:53.672Z,48064
2016-09-15T08:22:54.326Z,50016
2016-09-15T08:23:54.980Z,52480
2016-09-15T08:24:55.642Z,55552
2016-09-15T08:25:56.324Z,55296
2016-09-15T08:26:57.086Z,52224
2016-09-15T08:27:57.808Z,48480
2016-09-15T08:28:58.506Z,47360
2016-09-15T08:29:59.199Z,50464
2016-09-15T08:30:59.861Z,55296
2016-09-15T08:32:00.521Z,58720
2016-09-15T08:33:01.184Z,56640
2016-09-15T08:34:01.840Z,51936
2016-09-15T08:35:02.528Z,50272
2016-09-15T08:36:03.195Z,52672
2016-09-15T08:37:03.860Z,54400
2016-09-15T08:38:04.534Z,52576
2016-09-15T08:39:05.188Z,50112
2016-09-15T08:40:05.850Z,49312
2016-09-15T08:41:06.509Z,51264
2016-09-15T08:42:07.156Z,55264
2016-09-15T08:43:07.812Z,59456
2016-09-15T08:44:08.461Z,61248
2016-09-15T08:45:09.117Z,59264
2016-09-15T08:46:09.779Z,53504
2016-09-15T08:47:10.440Z,50080
2016-09-15T08:48:11.087Z,50528
2016-09-15T08:49:11.779Z,55296
2016-09-15T08:50:12.452Z,60480
2016-09-15T08:51:13.104Z,63200
2016-09-15T08:52:13.764Z,63552
2016-09-15T08:53:14.440Z,60352
2016-09-15T08:54:15.108Z,57216
2016-09-15T08:55:15.896Z,55488
2016-09-15T08:56:16.741Z,56704
2016-09-15T08:57:17.565Z,58784
2016-09-15T08:58:18.219Z,61184
2016-09-15T08:59:18.881Z,61248
2016-09-15T09:00:19.529Z,60096
2016-09-15T09:01:20.194Z,57472
2016-09-15T09:02:20.867Z,56672
2016-09-15T09:03:21.529Z,57408
2016-09-15T09:04:22.196Z,58592
2016-09-15T09:05:22.854Z,59520
2016-09-15T09:06:23.510Z,36032
2016-09-15T09:07:24.159Z,24096
2016-09-15T09:08:24.807Z,29088
2016-09-15T09:09:25.471Z,28256
2016-09-15T09:10:26.133Z,18048
2016-09-15T09:11:26.834Z,4416
2016-09-15T09:12:27.483Z,4336
2016-09-15T09:13:28.156Z,4312
2016-09-15T09:14:28.816Z,4348
2016-09-15T09:15:29.486Z,4328
2016-09-15T09:16:30.138Z,4312
2016-09-15T09:17:30.795Z,4268
2016-09-15T09:18:31.437Z,4236
2016-09-15T09:19:32.087Z,8600
2016-09-15T09:20:32.764Z,30880
2016-09-15T09:21:33.437Z,44448
2016-09-15T09:22:34.107Z,24128
2016-09-15T09:23:34.752Z,4272
2016-09-15T09:24:35.411Z,4148
2016-09-15T09:25:36.098Z,4104
2016-09-15T09:26:36.738Z,4136
2016-09-15T09:27:37.403Z,4136
2016-09-15T09:28:38.059Z,4096
2016-09-15T09:29:38.691Z,4072
2016-09-15T09:30:39.440Z,4136
2016-09-15T09:31:40.118Z,4128
2016-09-15T09:32:40.986Z,4184
2016-09-15T09:33:41.474Z,4152
2016-09-15T09:34:42.143Z,4136
2016-09-15T09:35:43.006Z,4128
2016-09-15T09:36:43.628Z,4068
2016-09-15T09:37:44.274Z,4160
2016-09-15T09:38:44.937Z,4072
2016-09-15T09:39:45.587Z,4104
2016-09-15T09:40:46.231Z,4096
2016-09-15T09:41:46.893Z,4036
2016-09-15T09:42:47.553Z,4020
2016-09-15T09:43:48.232Z,4084
2016-09-15T09:44:48.903Z,4060
2016-09-15T09:45:49.613Z,4088
2016-09-15T09:46:50.275Z,3976
2016-09-15T09:47:50.923Z,3976
2016-09-15T09:48:51.572Z,4048
2016-09-15T09:49:52.235Z,4088
2016-09-15T09:50:52.885Z,3944
2016-09-15T09:51:53.543Z,4020
2016-09-15T09:52:54.222Z,4004
2016-09-15T09:53:54.862Z,3860
2016-09-15T09:54:55.515Z,3984
2016-09-15T09:55:56.157Z,3912
2016-09-15T09:56:56.807Z,3916
2016-09-15T09:57:57.453Z,3948
2016-09-15T09:58:58.165Z,3784
2016-09-15T09:59:58.810Z,3840
2016-09-15T10:00:59.465Z,3848
2016-09-15T10:02:00.111Z,3860
2016-09-15T10:03:00.768Z,3788
2016-09-15T10:04:01.427Z,3872
2016-09-15T10:05:02.085Z,3768
2016-09-15T10:06:02.731Z,3728
2016-09-15T10:07:03.399Z,3664
2016-09-15T10:08:04.040Z,3624
2016-09-15T10:09:04.698Z,3628
2016-09-15T10:10:05.330Z,3588
2016-09-15T10:11:05.971Z,3564
2016-09-15T10:12:06.624Z,3616
2016-09-15T10:13:07.275Z,3532
2016-09-15T10:14:07.938Z,3600
2016-09-15T10:15:08.601Z,3608
2016-09-15T10:16:09.249Z,3544
2016-09-15T10:17:09.895Z,3644
2016-09-15T10:18:10.553Z,3508
2016-09-15T10:19:11.214Z,3516
2016-09-15T10:20:11.889Z,3500
2016-09-15T10:21:12.568Z,3504
2016-09-15T10:22:13.235Z,3544
2016-09-15T10:23:13.865Z,3484
2016-09-15T10:24:14.530Z,3464
2016-09-15T10:25:15.178Z,3460
2016-09-15T10:26:15.811Z,3432
2016-09-15T10:27:16.470Z,3384
2016-09-15T10:28:17.120Z,3460
2016-09-15T10:29:17.760Z,3496
2016-09-15T10:30:18.398Z,3476
2016-09-15T10:31:19.050Z,3464
2016-09-15T10:32:19.700Z,3420
2016-09-15T10:33:20.353Z,3372
2016-09-15T10:34:20.997Z,3300
2016-09-15T10:35:21.652Z,3284
2016-09-15T10:36:23.284Z,3276
2016-09-15T10:37:23.934Z,3300
2016-09-15T10:38:24.608Z,3272
2016-09-15T10:39:25.256Z,3312
2016-09-15T10:40:25.957Z,3320
2016-09-15T10:41:26.623Z,3340
2016-09-15T10:42:27.283Z,3328
2016-09-15T10:43:27.941Z,3292
2016-09-15T10:44:28.610Z,3364
2016-09-15T10:45:29.263Z,3228
2016-09-15T10:46:29.923Z,3192
2016-09-15T10:47:30.579Z,3216
2016-09-15T10:48:31.229Z,3244
2016-09-15T10:49:31.876Z,3208
2016-09-15T10:50:32.527Z,3220
2016-09-15T10:51:33.192Z,3144
2016-09-15T10:52:33.857Z,3084
2016-09-15T10:53:34.537Z,3088
2016-09-15T10:54:35.204Z,3124
2016-09-15T10:55:35.884Z,3124
2016-09-15T10:56:36.537Z,3112
2016-09-15T10:57:37.184Z,3044
2016-09-15T10:58:37.850Z,3040
2016-09-15T10:59:38.516Z,3012
2016-09-15T11:00:39.175Z,3036
2016-09-15T11:01:39.867Z,3048
2016-09-15T11:02:40.558Z,3100
2016-09-15T11:03:41.213Z,3004
2016-09-15T11:04:41.884Z,3004
2016-09-15T11:05:42.524Z,3016
2016-09-15T11:06:43.170Z,3028
2016-09-15T11:07:43.822Z,2972
2016-09-15T11:08:44.475Z,2956
2016-09-15T11:09:45.142Z,2976
2016-09-15T11:10:45.815Z,2968
2016-09-15T11:11:46.464Z,2916
2016-09-15T11:12:47.096Z,2928
2016-09-15T11:13:47.756Z,2920
2016-09-15T11:14:48.405Z,2876
2016-09-15T11:15:49.061Z,2852
2016-09-15T11:16:49.704Z,2844
2016-09-15T11:17:50.371Z,2836
2016-09-15T11:18:51.013Z,2820
2016-09-15T11:19:51.685Z,2864
2016-09-15T11:20:52.342Z,2812
2016-09-15T11:21:52.988Z,2804
2016-09-15T11:22:53.660Z,2920
2016-09-15T11:23:54.324Z,2760
2016-09-15T11:24:54.984Z,2780
2016-09-15T11:25:55.627Z,2764
2016-09-15T11:26:56.271Z,2768
2016-09-15T11:27:56.917Z,2768
2016-09-15T11:28:57.593Z,2784
2016-09-15T11:29:58.239Z,2736
2016-09-15T11:30:58.923Z,2728
2016-09-15T11:31:59.560Z,2716
2016-09-15T11:33:00.201Z,2692
2016-09-15T11:34:00.867Z,2688
2016-09-15T11:35:01.522Z,2740
2016-09-15T11:36:02.204Z,2704
2016-09-15T11:37:02.870Z,2680
2016-09-15T11:38:03.514Z,2688
2016-09-15T11:39:04.177Z,2716
2016-09-15T11:40:04.827Z,2728
2016-09-15T11:41:05.482Z,2680
2016-09-15T11:42:06.134Z,2684
2016-09-15T11:43:06.777Z,2716
2016-09-15T11:44:07.447Z,2704
2016-09-15T11:45:08.091Z,2664
2016-09-15T11:46:08.757Z,2632
2016-09-15T11:47:09.432Z,2664
2016-09-15T11:48:10.082Z,2648
2016-09-15T11:49:10.735Z,2680
2016-09-15T11:50:11.378Z,2588
2016-09-15T11:51:12.028Z,2628
2016-09-15T11:52:12.680Z,2680
2016-09-15T11:53:13.334Z,2612
2016-09-15T11:54:13.975Z,2604
2016-09-15T11:55:14.637Z,2596
2016-09-15T11:56:15.285Z,2648
2016-09-15T11:57:15.929Z,2624
2016-09-15T11:58:16.590Z,2648
2016-09-15T11:59:17.281Z,2616
2016-09-15T12:00:17.942Z,2604
2016-09-15T12:01:18.622Z,2612
2016-09-15T12:02:19.269Z,2612
2016-09-15T12:03:19.915Z,2584
2016-09-15T12:04:20.590Z,2544
2016-09-15T12:05:21.269Z,2552
2016-09-15T12:06:21.945Z,2572
2016-09-15T12:07:22.592Z,2504
2016-09-15T12:08:23.269Z,2508
2016-09-15T12:09:23.913Z,2544
2016-09-15T12:10:24.554Z,2508
2016-09-15T12:11:25.204Z,2488
2016-09-15T12:12:25.842Z,2500
2016-09-15T12:13:26.488Z,2512
2016-09-15T12:14:27.136Z,2476
2016-09-15T12:15:27.783Z,2472
2016-09-15T12:16:28.443Z,2520
2016-09-15T12:17:29.125Z,2464
2016-09-15T12:18:29.763Z,2424
2016-09-15T12:19:30.416Z,2464
2016-09-15T12:20:31.079Z,2448
2016-09-15T12:21:31.738Z,2500
2016-09-15T12:22:32.382Z,2492
2016-09-15T12:23:33.026Z,2412
2016-09-15T12:24:33.708Z,2412
2016-09-15T12:25:34.348Z,2408
2016-09-15T12:26:35.023Z,2384
2016-09-15T12:27:35.665Z,2376
2016-09-15T12:28:36.332Z,2384
2016-09-15T12:29:36.990Z,2368
2016-09-15T12:30:37.642Z,2396
2016-09-15T12:31:38.282Z,2316
2016-09-15T12:32:38.945Z,2368
2016-09-15T12:33:39.596Z,2360
2016-09-15T12:34:40.266Z,2332
2016-09-15T12:35:40.923Z,2328
2016-09-15T12:36:41.588Z,2320
2016-09-15T12:37:42.254Z,2272
2016-09-15T12:38:42.911Z,2280
2016-09-15T12:39:43.556Z,2260
2016-09-15T12:40:44.201Z,2284
2016-09-15T12:41:44.851Z,2272
2016-09-15T12:42:45.500Z,2280
2016-09-15T12:43:46.153Z,2284
2016-09-15T12:44:46.807Z,2276
2016-09-15T12:45:47.441Z,2292
2016-09-15T12:46:48.087Z,2272
2016-09-15T12:47:48.753Z,2272
2016-09-15T12:48:49.404Z,2288
2016-09-15T12:49:50.073Z,2296
2016-09-15T12:50:50.715Z,2344
2016-09-15T12:51:51.371Z,2256
2016-09-15T12:52:52.040Z,2240
2016-09-15T12:53:52.689Z,2224
2016-09-15T12:54:53.349Z,2232
2016-09-15T12:55:53.992Z,2228
2016-09-15T12:56:54.628Z,2228
2016-09-15T12:57:55.264Z,2196
2016-09-15T12:58:55.920Z,2184
2016-09-15T12:59:56.569Z,2184
2016-09-15T13:00:57.214Z,2200
2016-09-15T13:01:57.860Z,2188
2016-09-15T13:02:58.501Z,2204
2016-09-15T13:03:59.145Z,2196
2016-09-15T13:04:59.869Z,2172
2016-09-15T13:06:00.504Z,2172
2016-09-15T13:07:01.162Z,2180
2016-09-15T13:08:01.825Z,2176
2016-09-15T13:09:02.495Z,2196
2016-09-15T13:10:03.141Z,2176
2016-09-15T13:11:03.786Z,2188
2016-09-15T13:12:04.436Z,2180
2016-09-15T13:13:05.101Z,2196
2016-09-15T13:14:05.749Z,2164
2016-09-15T13:15:06.400Z,2176
2016-09-15T13:16:07.071Z,2156
2016-09-15T13:17:07.726Z,2140
2016-09-15T13:18:08.381Z,2152
2016-09-15T13:19:09.015Z,2152
2016-09-15T13:20:09.667Z,2164
2016-09-15T13:21:10.313Z,2128
2016-09-15T13:22:10.978Z,2144
2016-09-15T13:23:11.648Z,2132
2016-09-15T13:24:12.296Z,2136
2016-09-15T13:25:12.934Z,2124
2016-09-15T13:26:13.595Z,2116
2016-09-15T13:27:14.239Z,2116
2016-09-15T13:28:14.878Z,2128
2016-09-15T13:29:15.520Z,2108
2016-09-15T13:30:16.158Z,2104
2016-09-15T13:31:16.806Z,2104
2016-09-15T13:32:17.478Z,2108
2016-09-15T13:33:18.120Z,2096
2016-09-15T13:34:18.773Z,2100
2016-09-15T13:35:19.414Z,2124
2016-09-15T13:36:20.050Z,2120
2016-09-15T13:37:20.707Z,2088
2016-09-15T13:38:21.356Z,2112
2016-09-15T13:39:21.997Z,2084
2016-09-15T13:40:22.637Z,2064
2016-09-15T13:41:23.293Z,2076
2016-09-15T13:42:23.943Z,2052
2016-09-15T13:43:24.599Z,2012
2016-09-15T13:44:25.265Z,2040
2016-09-15T13:45:25.942Z,2028
2016-09-15T13:46:26.585Z,2032
2016-09-15T13:47:27.221Z,2008
2016-09-15T13:48:27.880Z,2012
2016-09-15T13:49:28.531Z,2032
2016-09-15T13:50:29.184Z,2004
2016-09-15T13:51:29.840Z,1992
2016-09-15T13:52:30.493Z,2000
2016-09-15T13:53:31.172Z,2032
2016-09-15T13:54:31.854Z,2008
2016-09-15T13:55:32.493Z,2012
2016-09-15T13:56:33.144Z,2012
2016-09-15T13:57:33.797Z,2028
2016-09-15T13:58:34.473Z,2008
2016-09-15T13:59:35.129Z,2012
2016-09-15T14:00:35.779Z,2012
2016-09-15T14:01:36.427Z,2024
2016-09-15T14:02:37.072Z,2020
2016-09-15T14:03:37.748Z,2000
2016-09-15T14:04:38.412Z,2020
2016-09-15T14:05:39.055Z,1996
2016-09-15T14:06:39.692Z,1976
2016-09-15T14:07:40.346Z,1968
2016-09-15T14:08:41.002Z,1964
2016-09-15T14:09:41.653Z,1936
2016-09-15T14:10:42.301Z,1916
2016-09-15T14:11:42.949Z,1916
2016-09-15T14:12:43.595Z,1900
2016-09-15T14:13:44.241Z,1888
2016-09-15T14:14:44.899Z,1904
2016-09-15T14:15:45.547Z,1892
2016-09-15T14:16:46.215Z,1908
2016-09-15T14:17:46.860Z,1896
2016-09-15T14:18:47.517Z,1904
2016-09-15T14:19:48.173Z,1904
2016-09-15T14:20:48.834Z,1904
2016-09-15T14:21:49.473Z,1904
2016-09-15T14:22:50.128Z,1912
2016-09-15T14:23:50.766Z,1920
2016-09-15T14:24:51.436Z,1908
2016-09-15T14:25:52.081Z,1912
2016-09-15T14:26:52.721Z,1892
2016-09-15T14:27:53.391Z,1884
2016-09-15T14:28:54.142Z,1872
2016-09-15T14:29:54.796Z,1888
2016-09-15T14:30:55.482Z,1876
2016-09-15T14:31:56.139Z,1868
2016-09-15T14:32:56.833Z,1848
2016-09-15T14:33:57.491Z,1836
2016-09-15T14:34:58.139Z,1852
2016-09-15T14:35:58.795Z,1848
2016-09-15T14:36:59.472Z,1860
2016-09-15T14:38:00.139Z,1884
2016-09-15T14:39:00.787Z,1864
2016-09-15T14:40:01.439Z,1852
2016-09-15T14:41:02.093Z,1840
2016-09-15T14:42:02.729Z,1844
2016-09-15T14:43:03.384Z,1848
2016-09-15T14:44:04.034Z,1852
2016-09-15T14:45:04.697Z,1836
2016-09-15T14:46:05.350Z,1824
2016-09-15T14:47:05.999Z,1816
2016-09-15T14:48:06.634Z,1808
2016-09-15T14:49:07.277Z,1808
2016-09-15T14:50:07.928Z,1824
2016-09-15T14:51:08.595Z,1824
2016-09-15T14:52:09.229Z,1808
2016-09-15T14:53:09.869Z,1812
2016-09-15T14:54:10.541Z,1808
2016-09-15T14:55:11.212Z,1828
2016-09-15T14:56:11.884Z,1788
2016-09-15T14:57:12.581Z,1812
2016-09-15T14:58:13.232Z,1792
2016-09-15T14:59:13.861Z,1760
2016-09-15T15:00:14.494Z,1784
2016-09-15T15:01:15.150Z,1760
2016-09-15T15:02:15.832Z,1748
2016-09-15T15:03:16.512Z,1760
2016-09-15T15:04:17.157Z,1768
2016-09-15T15:05:17.806Z,1772
2016-09-15T15:06:18.456Z,1756
2016-09-15T15:07:19.130Z,1760
2016-09-15T15:08:19.822Z,1780
2016-09-15T15:09:20.541Z,1748
2016-09-15T15:10:21.191Z,1736
2016-09-15T15:11:21.832Z,1728
2016-09-15T15:12:22.490Z,1724
2016-09-15T15:13:23.219Z,1724
2016-09-15T15:14:23.893Z,1720
2016-09-15T15:15:24.523Z,1744
2016-09-15T15:16:25.233Z,1732
2016-09-15T15:17:25.899Z,1740
2016-09-15T15:18:26.577Z,1744
2016-09-15T15:19:27.293Z,1716
2016-09-15T15:20:27.937Z,1712
2016-09-15T15:21:28.662Z,1716
2016-09-15T15:22:29.326Z,1696
2016-09-15T15:23:29.999Z,1680
2016-09-15T15:24:30.667Z,1664
2016-09-15T15:25:31.362Z,1660
2016-09-15T15:26:32.019Z,1644
2016-09-15T15:27:32.654Z,1644
2016-09-15T15:28:33.360Z,1636
2016-09-15T15:29:34.031Z,1632
2016-09-15T15:30:34.864Z,1636
2016-09-15T15:31:35.590Z,1624
2016-09-15T15:32:36.253Z,1632
2016-09-15T15:33:37.018Z,1620
2016-09-15T15:34:37.734Z,1652
2016-09-15T15:35:38.488Z,1628
2016-09-15T15:36:39.163Z,1620
2016-09-15T15:37:40.142Z,1620
2016-09-15T15:38:41.232Z,1620
2016-09-15T15:39:41.960Z,1608
2016-09-15T15:40:43.029Z,1596
2016-09-15T15:41:43.735Z,1592
2016-09-15T15:42:45.360Z,1604
2016-09-15T15:43:46.320Z,1584
2016-09-15T15:44:47.362Z,1592
2016-09-15T15:45:48.026Z,1584
2016-09-15T15:46:48.709Z,1572
2016-09-15T15:47:49.369Z,1560
2016-09-15T15:48:50.062Z,1544
2016-09-15T15:49:50.711Z,1552
2016-09-15T15:50:51.352Z,1548
2016-09-15T15:51:52.002Z,1560
2016-09-15T15:52:52.662Z,1548
2016-09-15T15:53:53.306Z,1532
2016-09-15T15:54:53.967Z,1536
2016-09-15T15:55:54.637Z,1500
2016-09-15T15:56:55.288Z,1504
2016-09-15T15:57:55.958Z,1508
2016-09-15T15:58:56.616Z,1484
2016-09-15T15:59:57.276Z,1496
2016-09-15T16:00:57.935Z,1476
2016-09-15T16:01:58.599Z,1456
2016-09-15T16:02:59.247Z,1460
2016-09-15T16:03:59.900Z,1472
2016-09-15T16:05:00.572Z,1452
2016-09-15T16:06:01.213Z,1444
2016-09-15T16:07:01.855Z,1444
2016-09-15T16:08:02.505Z,1440
2016-09-15T16:09:03.160Z,1432
2016-09-15T16:10:03.815Z,1420
2016-09-15T16:11:04.815Z,1412
2016-09-15T16:12:05.961Z,1416
2016-09-15T16:13:06.616Z,1416
2016-09-15T16:14:07.335Z,1392
2016-09-15T16:15:07.999Z,1388
2016-09-15T16:16:08.650Z,1384
2016-09-15T16:17:09.293Z,1380
2016-09-15T16:18:10.098Z,1360
2016-09-15T16:19:10.787Z,1352
2016-09-15T16:20:11.454Z,1336
2016-09-15T16:21:12.098Z,1340
2016-09-15T16:22:12.807Z,1320
2016-09-15T16:23:13.494Z,1312
2016-09-15T16:24:14.155Z,1308
2016-09-15T16:25:14.830Z,1300
2016-09-15T16:26:15.491Z,1280
2016-09-15T16:27:16.141Z,1284
2016-09-15T16:28:16.819Z,1276
2016-09-15T16:29:17.465Z,1260
2016-09-15T16:30:18.106Z,1244
2016-09-15T16:31:18.768Z,1236
2016-09-15T16:32:19.414Z,1228
2016-09-15T16:33:20.084Z,1216
2016-09-15T16:34:20.723Z,1200
2016-09-15T16:35:21.387Z,1196
2016-09-15T16:36:22.039Z,1192
2016-09-15T16:37:22.679Z,1172
2016-09-15T16:38:23.328Z,1160
2016-09-15T16:39:23.989Z,1152
2016-09-15T16:40:24.656Z,1148
2016-09-15T16:41:25.326Z,1128
2016-09-15T16:42:25.962Z,1108
2016-09-15T16:43:26.625Z,1108
2016-09-15T16:44:27.275Z,1080
2016-09-15T16:45:27.945Z,1060
2016-09-15T16:46:28.595Z,1044
2016-09-15T16:47:29.245Z,1044
2016-09-15T16:48:29.887Z,1028
2016-09-15T16:49:30.575Z,1016
2016-09-15T16:50:31.227Z,1012
2016-09-15T16:51:31.872Z,980
2016-09-15T16:52:32.538Z,968
2016-09-15T16:53:33.196Z,956
2016-09-15T16:54:33.846Z,940
2016-09-15T16:55:34.503Z,924
2016-09-15T16:56:35.169Z,904
2016-09-15T16:57:35.831Z,884
2016-09-15T16:58:36.470Z,868
2016-09-15T16:59:37.124Z,852
2016-09-15T17:00:37.860Z,836
2016-09-15T17:01:38.517Z,816
2016-09-15T17:02:39.147Z,796
2016-09-15T17:03:39.794Z,772
2016-09-15T17:04:40.443Z,756
2016-09-15T17:05:41.101Z,740
2016-09-15T17:06:41.757Z,716
2016-09-15T17:07:42.486Z,696
2016-09-15T17:08:43.144Z,676
2016-09-15T17:09:43.793Z,664
2016-09-15T17:10:44.476Z,632
2016-09-15T17:11:45.134Z,612
2016-09-15T17:12:45.791Z,592
2016-09-15T17:13:46.475Z,568
2016-09-15T17:14:47.142Z,548
2016-09-15T17:15:47.818Z,528
2016-09-15T17:16:48.461Z,504
2016-09-15T17:17:49.112Z,484
2016-09-15T17:18:49.781Z,464
2016-09-15T17:19:50.433Z,444
2016-09-15T17:20:51.077Z,420
2016-09-15T17:21:51.768Z,400
2016-09-15T17:22:52.678Z,380
2016-09-15T17:23:53.351Z,356
2016-09-15T17:24:54.023Z,336
2016-09-15T17:25:54.713Z,316
2016-09-15T17:26:55.428Z,300
2016-09-15T17:27:56.081Z,280
2016-09-15T17:28:56.763Z,260
2016-09-15T17:29:57.695Z,240
2016-09-15T17:30:58.519Z,224
2016-09-15T17:31:59.195Z,204
2016-09-15T17:32:59.854Z,192
2016-09-15T17:34:00.518Z,172
2016-09-15T17:35:01.178Z,160
2016-09-15T17:36:01.820Z,144
2016-09-15T17:37:02.494Z,132
2016-09-15T17:38:03.529Z,120
2016-09-15T17:39:04.187Z,108
2016-09-15T17:40:04.957Z,96
2016-09-15T17:41:05.691Z,84
2016-09-15T17:42:06.340Z,76
2016-09-15T17:43:07.125Z,68
2016-09-15T17:44:07.816Z,56
2016-09-15T17:45:08.486Z,52
2016-09-15T17:46:09.275Z,44